Time;durP1;ratioP1;P1;durP2;ratioP2;P2;SDS_P1;SDS_P2;PMS_P1;PMS_P2;Temp;Humidity;BMP_temperature;BMP_pressure;BME280_temperature;BME280_humidity;BME280_pressure;Samples;Min_cycle;Max_cycle;Signal;HPM_P1;HPM_P2
2022/01/09 00:02:03;;;;;;;67.53;17.80;;;0.20;99.90;;;;;;5061379;28;20647;-86
2022/01/09 00:04:29;;;;;;;67.60;17.75;;;0.30;99.90;;;;;;5060116;28;20032;-84
2022/01/09 00:06:54;;;;;;;14.43;7.78;;;0.30;99.90;;;;;;5058098;28;20028;-84
2022/01/09 00:09:20;;;;;;;14.38;7.57;;;0.30;99.90;;;;;;5075514;28;20127;-85
2022/01/09 00:11:46;;;;;;;16.77;8.68;;;0.30;99.90;;;;;;5057440;28;20028;-84
2022/01/09 00:14:11;;;;;;;14.95;7.70;;;0.30;99.90;;;;;;5056615;28;20032;-84
2022/01/09 00:16:37;;;;;;;12.88;8.10;;;0.30;99.90;;;;;;5057567;28;20107;-85
2022/01/09 00:19:03;;;;;;;18.15;8.15;;;0.30;99.90;;;;;;5057848;28;20025;-85
2022/01/09 00:21:29;;;;;;;16.02;7.93;;;0.30;99.90;;;;;;5056798;28;20380;-84
2022/01/09 00:23:56;;;;;;;14.27;8.63;;;0.30;99.90;;;;;;5056309;28;20035;-85
2022/01/09 00:26:22;;;;;;;17.00;9.00;;;0.30;99.90;;;;;;5046990;28;20040;-84
2022/01/09 00:28:47;;;;;;;13.82;8.35;;;0.30;99.90;;;;;;5043760;28;20024;-84
2022/01/09 00:31:13;;;;;;;14.65;9.00;;;0.30;99.90;;;;;;5043933;28;20039;-83
2022/01/09 00:33:39;;;;;;;16.02;9.48;;;0.30;99.90;;;;;;5044096;28;20400;-85
2022/01/09 00:36:04;;;;;;;19.33;10.52;;;0.30;99.90;;;;;;5078289;28;20043;-83
2022/01/09 00:38:30;;;;;;;15.82;9.00;;;0.30;99.90;;;;;;5045275;28;20032;-83
2022/01/09 00:40:56;;;;;;;20.52;10.13;;;0.30;99.90;;;;;;5045561;28;20082;-83
2022/01/09 00:43:21;;;;;;;19.77;9.27;;;0.30;99.90;;;;;;5062653;28;20028;-82
2022/01/09 00:45:47;;;;;;;19.20;10.23;;;0.30;99.90;;;;;;5061735;28;20028;-85
2022/01/09 00:48:13;;;;;;;19.90;11.00;;;0.30;99.90;;;;;;5043600;28;20036;-83
2022/01/09 00:50:40;;;;;;;19.70;9.45;;;0.30;99.90;;;;;;5059438;28;20047;-82
2022/01/09 00:53:07;;;;;;;20.50;11.50;;;0.30;99.90;;;;;;5042421;28;20040;-83
2022/01/09 00:55:33;;;;;;;22.60;11.23;;;0.40;99.90;;;;;;5041377;28;20033;-84
2022/01/09 00:57:59;;;;;;;18.08;9.10;;;0.30;99.90;;;;;;5057987;28;20106;-86
2022/01/09 01:00:25;;;;;;;18.65;9.93;;;0.30;99.90;;;;;;5041734;28;20032;-86
2022/01/09 01:02:51;;;;;;;22.15;10.32;;;0.30;99.90;;;;;;5041395;28;20032;-87
2022/01/09 01:05:17;;;;;;;17.70;9.43;;;0.30;99.90;;;;;;5041748;28;20057;-88
2022/01/09 01:07:45;;;;;;;16.20;9.30;;;0.30;99.90;;;;;;5042400;28;20111;-89
2022/01/09 01:10:12;;;;;;;18.30;10.40;;;0.30;99.90;;;;;;5041855;28;20504;-90
2022/01/09 01:12:40;;;;;;;18.90;10.40;;;0.30;99.90;;;;;;5045554;28;20028;-92
2022/01/09 01:15:10;;;;;;;18.65;10.68;;;0.30;99.90;;;;;;5050409;28;20036;-94
2022/01/09 01:17:37;;;;;;;19.90;11.00;;;0.30;99.90;;;;;;5071724;28;20324;-94
2022/01/09 01:20:12;;;;;;;18.27;9.52;;;0.40;99.90;;;;;;5053170;28;20025;-92
2022/01/09 01:22:40;;;;;;;53.40;12.23;;;0.40;99.90;;;;;;5044125;28;20082;-89
2022/01/09 01:25:06;;;;;;;59.75;12.35;;;0.40;99.90;;;;;;5048937;28;20040;-88
2022/01/09 01:27:32;;;;;;;24.52;11.05;;;0.40;99.90;;;;;;5046024;28;20039;-90
2022/01/09 01:30:01;;;;;;;24.20;10.38;;;0.40;99.90;;;;;;5040811;28;20032;-90
2022/01/09 01:32:27;;;;;;;26.58;10.30;;;0.40;99.90;;;;;;5039450;28;20036;-88
2022/01/09 01:34:52;;;;;;;21.75;9.20;;;0.40;99.90;;;;;;5039715;28;20020;-89
2022/01/09 01:37:18;;;;;;;36.92;12.15;;;0.40;99.90;;;;;;5054944;28;20044;-89
2022/01/09 01:39:44;;;;;;;47.90;12.60;;;0.50;99.90;;;;;;5039188;28;20023;-87
2022/01/09 01:42:10;;;;;;;215.45;20.15;;;0.50;99.90;;;;;;5039372;28;20028;-90
2022/01/09 01:44:44;;;;;;;61.08;13.25;;;0.50;99.90;;;;;;5039341;28;20392;-90
2022/01/09 01:47:10;;;;;;;426.45;34.75;;;0.50;99.90;;;;;;5039815;28;20033;-88
2022/01/09 01:49:36;;;;;;;668.58;42.25;;;0.60;99.90;;;;;;5039618;28;20667;-90
2022/01/09 01:52:03;;;;;;;609.35;38.47;;;0.60;99.90;;;;;;5038339;28;20025;-88
2022/01/09 01:54:29;;;;;;;591.20;38.92;;;0.60;99.90;;;;;;5039389;28;20037;-89
2022/01/09 01:57:24;;;;;;;446.83;30.17;;;0.70;99.90;;;;;;5040534;28;20040;-89
2022/01/09 02:00:01;;;;;;;504.65;35.00;;;0.70;99.90;;;;;;5058457;28;20028;-89
2022/01/09 02:02:27;;;;;;;599.40;39.33;;;0.70;99.90;;;;;;5039421;28;20059;-89
2022/01/09 02:04:53;;;;;;;548.25;34.60;;;0.70;99.90;;;;;;5039620;28;20044;-89
2022/01/09 02:07:19;;;;;;;579.80;38.83;;;0.70;99.90;;;;;;5039102;28;20430;-89
2022/01/09 02:09:45;;;;;;;574.80;35.55;;;0.70;99.90;;;;;;5038681;28;20028;-88
2022/01/09 02:12:11;;;;;;;504.98;35.40;;;0.80;99.90;;;;;;5040358;28;20050;-86
2022/01/09 02:14:38;;;;;;;227.85;18.90;;;0.80;99.90;;;;;;5074155;28;20043;-88
2022/01/09 02:17:05;;;;;;;42.58;8.25;;;0.80;99.90;;;;;;5039495;28;20028;-88
2022/01/09 02:19:31;;;;;;;46.00;8.35;;;0.80;99.90;;;;;;5042455;28;20048;-89
2022/01/09 02:21:59;;;;;;;13.10;6.88;;;0.80;99.90;;;;;;5042249;28;20033;-89
2022/01/09 02:24:25;;;;;;;29.48;7.18;;;0.90;99.90;;;;;;5041065;28;20127;-91
2022/01/09 02:26:53;;;;;;;30.75;8.30;;;0.90;99.90;;;;;;5040152;28;20036;-89
2022/01/09 02:29:19;;;;;;;115.80;13.57;;;0.80;99.90;;;;;;5039375;28;20039;-86
2022/01/09 02:31:45;;;;;;;15.02;8.25;;;0.80;99.90;;;;;;5038466;28;20029;-84
2022/01/09 02:34:11;;;;;;;19.48;8.90;;;0.90;99.90;;;;;;5038809;28;20078;-86
2022/01/09 02:36:37;;;;;;;18.05;8.85;;;0.90;99.90;;;;;;5039099;28;20074;-86
2022/01/09 02:39:21;;;;;;;15.35;7.70;;;1.00;99.90;;;;;;5042552;28;20032;-92
2022/01/09 02:41:47;;;;;;;14.25;8.63;;;1.10;99.90;;;;;;5018407;22;20046;-82
2022/01/09 02:44:13;;;;;;;13.52;7.78;;;1.10;99.90;;;;;;4980538;28;20040;-83
2022/01/09 02:46:55;;;;;;;15.73;8.48;;;1.00;99.90;;;;;;4980548;28;20038;-82
2022/01/09 02:49:21;;;;;;;15.48;7.70;;;1.10;99.90;;;;;;4996212;28;20080;-82
2022/01/09 02:51:46;;;;;;;12.88;7.30;;;1.10;99.90;;;;;;5012789;28;20038;-82
2022/01/09 02:57:01;;;;;;;17.75;8.60;;;1.10;99.90;;;;;;4956154;28;20522;-81
2022/01/09 02:59:26;;;;;;;16.05;8.88;;;1.20;99.90;;;;;;4977366;28;20076;-81
2022/01/09 03:01:52;;;;;;;19.65;8.93;;;1.20;99.90;;;;;;4998151;28;20041;-92
2022/01/09 03:04:18;;;;;;;18.88;10.55;;;1.30;99.90;;;;;;5000669;28;20040;-91
2022/01/09 03:06:43;;;;;;;17.20;8.70;;;1.40;99.90;;;;;;5000058;28;20030;-89
2022/01/09 03:09:09;;;;;;;18.75;10.13;;;1.50;99.90;;;;;;4998260;28;20032;-89
2022/01/09 03:11:37;;;;;;;14.88;8.63;;;1.60;99.90;;;;;;5000532;28;20033;-90
2022/01/09 03:14:03;;;;;;;15.20;8.77;;;1.70;99.90;;;;;;5000031;28;20090;-91
2022/01/09 03:16:28;;;;;;;11.50;7.88;;;1.70;99.90;;;;;;4999998;28;20065;-91
2022/01/09 03:19:16;;;;;;;14.65;8.55;;;1.70;99.90;;;;;;4999650;28;20030;-88
2022/01/09 03:21:41;;;;;;;11.35;7.50;;;1.90;99.90;;;;;;5014825;28;20036;-87
2022/01/09 03:24:21;;;;;;;16.23;10.02;;;1.90;99.90;;;;;;5013475;28;20108;-87
2022/01/09 03:26:47;;;;;;;13.95;8.85;;;2.00;99.90;;;;;;4997310;28;20038;-87
2022/01/09 03:29:13;;;;;;;11.68;7.80;;;2.10;99.90;;;;;;4997713;28;20042;-88
2022/01/09 03:31:39;;;;;;;13.18;7.35;;;2.10;99.90;;;;;;4997813;28;20061;-87
2022/01/09 03:34:04;;;;;;;9.25;6.22;;;2.20;99.90;;;;;;4997289;28;20029;-87
2022/01/09 03:36:30;;;;;;;11.18;7.38;;;2.20;99.90;;;;;;4996531;28;20137;-86
2022/01/09 03:38:56;;;;;;;13.90;7.30;;;2.20;99.90;;;;;;5012593;28;20071;-86
2022/01/09 03:41:21;;;;;;;9.02;5.45;;;2.20;99.90;;;;;;5013627;28;20120;-86
2022/01/09 03:43:47;;;;;;;8.50;4.80;;;2.20;99.90;;;;;;5013292;28;20145;-85
2022/01/09 03:46:13;;;;;;;6.43;4.05;;;2.20;99.90;;;;;;4996790;28;20073;-85
2022/01/09 03:48:38;;;;;;;5.85;2.80;;;2.20;99.90;;;;;;5013385;28;20041;-86
2022/01/09 03:51:04;;;;;;;5.30;3.45;;;2.20;99.90;;;;;;5013794;28;20022;-85
2022/01/09 03:53:31;;;;;;;6.68;3.50;;;2.20;99.90;;;;;;4995752;28;20121;-85
2022/01/09 03:55:58;;;;;;;10.25;4.47;;;2.20;99.90;;;;;;4995935;28;20397;-85
2022/01/09 03:58:23;;;;;;;6.65;4.60;;;2.20;99.90;;;;;;4995902;28;20128;-85
2022/01/09 04:00:49;;;;;;;4.72;3.40;;;2.20;99.90;;;;;;4997231;28;20073;-84
2022/01/09 04:03:15;;;;;;;4.70;2.78;;;2.30;99.90;;;;;;4999645;28;20033;-85
2022/01/09 04:05:41;;;;;;;3.90;2.75;;;2.30;99.90;;;;;;4999907;28;20080;-85
2022/01/09 04:08:06;;;;;;;3.33;2.42;;;2.20;99.90;;;;;;5015768;28;20062;-85
2022/01/09 04:10:39;;;;;;;2.28;1.65;;;2.20;99.90;;;;;;5016487;28;20034;-85
2022/01/09 04:13:05;;;;;;;4.07;2.15;;;2.20;99.90;;;;;;4983285;28;20038;-85
2022/01/09 04:15:31;;;;;;;3.42;1.67;;;2.20;99.90;;;;;;5015997;28;20117;-85
2022/01/09 04:17:58;;;;;;;2.03;1.33;;;2.20;99.90;;;;;;5015891;28;20067;-85
2022/01/09 04:20:29;;;;;;;1.73;1.27;;;2.20;99.90;;;;;;4999586;28;20033;-85
2022/01/09 04:22:56;;;;;;;4.70;2.15;;;2.20;99.90;;;;;;5016160;28;20030;-85
2022/01/09 04:25:21;;;;;;;1.80;1.23;;;2.30;99.90;;;;;;4999302;28;20045;-85
2022/01/09 04:27:48;;;;;;;1.95;1.58;;;2.30;99.90;;;;;;5015702;28;20505;-86
2022/01/09 04:30:15;;;;;;;57.53;22.00;;;2.20;99.90;;;;;;4999136;28;20034;-85
2022/01/09 04:32:41;;;;;;;2.38;1.63;;;2.20;99.90;;;;;;4998636;28;20088;-85
2022/01/09 04:35:24;;;;;;;1.65;1.45;;;2.20;99.90;;;;;;5014626;28;20042;-85
2022/01/09 04:37:50;;;;;;;1.60;1.48;;;2.20;99.90;;;;;;4998463;28;20029;-85
2022/01/09 04:40:18;;;;;;;1.13;1.02;;;2.10;99.90;;;;;;5015433;28;20068;-86
2022/01/09 04:42:47;;;;;;;1.38;1.13;;;2.10;99.90;;;;;;5014640;28;20037;-86
2022/01/09 04:45:15;;;;;;;1.92;1.73;;;2.10;99.90;;;;;;4998114;28;20462;-86
2022/01/09 04:47:44;;;;;;;2.13;1.40;;;2.10;99.90;;;;;;5014567;28;20041;-86
2022/01/09 04:50:14;;;;;;;1.90;1.20;;;2.00;99.90;;;;;;5015644;28;20038;-86
2022/01/09 04:52:41;;;;;;;2.08;1.60;;;2.00;99.90;;;;;;5015018;28;20056;-86
2022/01/09 04:55:07;;;;;;;1.67;1.40;;;2.00;99.90;;;;;;4998738;28;20041;-86
2022/01/09 04:57:33;;;;;;;2.55;1.27;;;2.00;99.90;;;;;;4999179;28;20084;-85
2022/01/09 04:59:58;;;;;;;1.10;1.00;;;1.90;99.90;;;;;;4982749;28;20709;-86
2022/01/09 05:02:24;;;;;;;3.42;2.05;;;1.90;99.90;;;;;;5016351;28;20613;-86
2022/01/09 05:04:50;;;;;;;2.88;1.98;;;1.90;99.90;;;;;;4998298;28;20153;-86
2022/01/09 05:07:16;;;;;;;4.25;2.30;;;1.90;99.90;;;;;;4998304;28;20385;-86
2022/01/09 05:09:41;;;;;;;4.85;2.70;;;1.80;99.90;;;;;;5014553;28;20041;-86
2022/01/09 05:12:07;;;;;;;2.65;2.20;;;1.80;99.90;;;;;;5015324;28;20049;-87
2022/01/09 05:14:33;;;;;;;2.53;2.13;;;1.70;99.90;;;;;;5015038;28;20130;-86
2022/01/09 05:16:59;;;;;;;3.00;2.10;;;1.70;99.90;;;;;;4998774;28;20109;-86
2022/01/09 05:19:28;;;;;;;4.00;2.30;;;1.60;99.90;;;;;;5014819;28;20026;-86
2022/01/09 05:21:55;;;;;;;2.00;1.45;;;1.60;99.90;;;;;;4997752;28;20030;-86
2022/01/09 05:24:21;;;;;;;1.73;1.23;;;1.60;99.90;;;;;;5013987;28;20040;-86
2022/01/09 05:26:47;;;;;;;1.88;1.60;;;1.50;99.90;;;;;;4997951;28;20396;-86
2022/01/09 05:29:13;;;;;;;1.52;1.35;;;1.50;99.90;;;;;;5014595;28;20030;-86
2022/01/09 05:31:39;;;;;;;1.30;0.90;;;1.50;99.90;;;;;;4998451;28;20033;-85
2022/01/09 05:34:36;;;;;;;1.02;0.82;;;1.40;99.90;;;;;;4997381;28;20044;-85
2022/01/09 05:37:04;;;;;;;1.00;0.85;;;1.40;99.90;;;;;;5014173;28;20029;-85
2022/01/09 05:39:33;;;;;;;0.95;0.50;;;1.30;99.90;;;;;;4997792;28;20499;-87
2022/01/09 05:42:02;;;;;;;1.95;0.60;;;1.20;99.90;;;;;;4997948;28;20037;-85
2022/01/09 05:44:28;;;;;;;0.47;0.38;;;1.20;99.90;;;;;;5014076;28;20034;-86
2022/01/09 05:46:53;;;;;;;2.15;0.65;;;1.10;99.90;;;;;;5014267;28;20065;-86
2022/01/09 05:49:19;;;;;;;0.65;0.52;;;1.10;99.90;;;;;;4997527;28;20030;-86
2022/01/09 05:51:45;;;;;;;0.47;0.47;;;1.00;99.90;;;;;;4997438;28;20030;-87
2022/01/09 05:54:10;;;;;;;0.85;0.57;;;1.00;99.90;;;;;;4997317;28;20393;-86
2022/01/09 05:56:36;;;;;;;2.65;0.52;;;1.00;99.90;;;;;;4997438;28;20068;-86
2022/01/09 05:59:02;;;;;;;3.03;2.13;;;0.90;99.90;;;;;;5013671;28;20025;-85
2022/01/09 06:01:28;;;;;;;2.20;0.90;;;0.90;99.90;;;;;;4997485;28;20057;-86
2022/01/09 06:03:53;;;;;;;2.03;0.77;;;0.90;99.90;;;;;;4980958;28;20477;-86
2022/01/09 06:06:19;;;;;;;1.30;0.88;;;0.90;99.90;;;;;;4997569;28;20057;-87
2022/01/09 06:08:45;;;;;;;2.30;1.90;;;0.90;99.90;;;;;;5013315;28;20037;-86
2022/01/09 06:11:11;;;;;;;2.22;1.73;;;1.00;99.90;;;;;;4998548;28;20034;-87
2022/01/09 06:13:36;;;;;;;5.72;1.13;;;0.90;99.90;;;;;;4997003;28;20107;-86
2022/01/09 06:16:03;;;;;;;2.15;1.00;;;0.90;99.90;;;;;;5013932;28;20022;-85
2022/01/09 06:18:29;;;;;;;6.57;1.00;;;0.90;99.90;;;;;;4997186;28;20030;-86
2022/01/09 06:20:55;;;;;;;1.48;0.80;;;0.90;99.90;;;;;;4998897;28;20089;-87
2022/01/09 06:23:21;;;;;;;2.78;1.00;;;0.90;99.90;;;;;;4997203;28;20042;-86
2022/01/09 06:25:53;;;;;;;2.53;0.75;;;0.90;99.90;;;;;;5013974;28;20120;-86
2022/01/09 06:28:19;;;;;;;2.97;0.93;;;0.80;99.90;;;;;;5013765;28;20036;-86
2022/01/09 06:30:45;;;;;;;1.98;0.93;;;0.80;99.90;;;;;;4997343;28;20121;-86
2022/01/09 06:33:12;;;;;;;1.05;0.73;;;0.80;99.90;;;;;;5013046;28;20061;-86
2022/01/09 06:35:39;;;;;;;1.70;0.73;;;0.80;99.90;;;;;;5013227;28;20029;-87
2022/01/09 06:38:06;;;;;;;1.77;0.73;;;0.80;99.90;;;;;;5014495;28;20541;-87
2022/01/09 06:40:33;;;;;;;2.17;1.30;;;0.80;99.90;;;;;;5013448;28;20080;-86
2022/01/09 06:42:59;;;;;;;5.75;2.25;;;0.80;99.90;;;;;;5015014;28;20057;-86
2022/01/09 06:45:26;;;;;;;5.30;2.33;;;0.80;99.90;;;;;;5014029;28;20805;-86
2022/01/09 06:47:57;;;;;;;5.60;2.88;;;0.80;99.90;;;;;;4996692;28;20041;-87
2022/01/09 06:50:24;;;;;;;8.88;2.80;;;0.90;99.90;;;;;;5014435;28;20030;-87
2022/01/09 06:52:50;;;;;;;4.38;2.72;;;1.00;99.90;;;;;;4996380;28;20652;-87
2022/01/09 06:55:16;;;;;;;9.88;3.17;;;1.00;99.90;;;;;;4996256;28;20393;-87
2022/01/09 06:57:42;;;;;;;6.63;3.17;;;1.10;99.90;;;;;;4996328;28;20033;-86
2022/01/09 07:00:10;;;;;;;7.72;2.92;;;1.10;99.90;;;;;;5012423;28;20030;-86
2022/01/09 07:03:18;;;;;;;12.70;3.55;;;1.00;99.90;;;;;;4979164;28;20030;-86
2022/01/09 07:05:44;;;;;;;8.73;3.40;;;1.10;99.90;;;;;;4996314;28;20134;-87
2022/01/09 07:08:10;;;;;;;13.07;4.63;;;1.20;99.90;;;;;;5013166;28;20046;-86
2022/01/09 07:10:36;;;;;;;14.07;5.05;;;1.20;99.90;;;;;;4996811;28;20061;-87
2022/01/09 07:13:03;;;;;;;16.05;4.82;;;1.20;99.90;;;;;;4997154;28;20116;-87
2022/01/09 07:15:28;;;;;;;19.77;5.80;;;1.30;99.90;;;;;;4996619;28;20029;-86
2022/01/09 07:17:54;;;;;;;14.30;5.55;;;1.30;99.90;;;;;;5012596;28;20390;-85
2022/01/09 07:20:20;;;;;;;15.60;5.05;;;1.30;99.90;;;;;;5013784;28;20539;-87
2022/01/09 07:22:47;;;;;;;17.02;6.20;;;1.30;99.90;;;;;;4997303;28;20033;-87
2022/01/09 07:25:13;;;;;;;17.80;6.88;;;1.30;99.90;;;;;;4996077;28;20040;-87
2022/01/09 07:27:39;;;;;;;18.73;7.25;;;1.40;99.90;;;;;;4996394;28;20026;-87
2022/01/09 07:30:05;;;;;;;24.77;7.50;;;1.40;99.90;;;;;;4996944;28;20061;-87
2022/01/09 07:32:33;;;;;;;30.45;8.60;;;1.40;99.90;;;;;;4996406;28;20034;-87
2022/01/09 07:34:58;;;;;;;25.02;5.93;;;1.40;99.90;;;;;;4996084;28;20069;-87
2022/01/09 07:37:27;;;;;;;29.50;8.07;;;1.40;99.90;;;;;;5017492;28;20062;-88
2022/01/09 07:39:52;;;;;;;22.52;7.03;;;1.40;99.90;;;;;;5000249;28;20041;-88
2022/01/09 07:42:18;;;;;;;22.25;6.90;;;1.30;99.90;;;;;;5000165;28;20548;-88
2022/01/09 07:45:27;;;;;;;24.13;9.15;;;1.30;99.90;;;;;;4999636;28;20121;-87
2022/01/09 07:47:54;;;;;;;17.00;5.78;;;1.30;99.90;;;;;;5000272;28;20026;-88
2022/01/09 07:50:22;;;;;;;13.40;6.25;;;1.30;99.90;;;;;;5016070;28;20072;-87
2022/01/09 07:52:48;;;;;;;15.85;7.20;;;1.20;99.90;;;;;;4999480;28;20021;-87
2022/01/09 07:55:14;;;;;;;19.38;5.93;;;1.30;99.90;;;;;;5000105;28;20061;-87
2022/01/09 07:58:14;;;;;;;18.45;4.32;;;1.20;99.90;;;;;;5000452;28;20123;-87
2022/01/09 08:00:41;;;;;;;13.98;5.25;;;1.20;99.90;;;;;;5016784;28;20072;-87
2022/01/09 08:03:06;;;;;;;14.13;7.07;;;1.10;99.90;;;;;;4999990;28;20056;-88
2022/01/09 08:05:32;;;;;;;16.23;5.78;;;1.10;99.90;;;;;;5016172;28;20470;-89
2022/01/09 08:07:57;;;;;;;11.93;3.90;;;1.00;99.90;;;;;;4999655;28;20120;-88
2022/01/09 08:10:23;;;;;;;14.05;6.28;;;1.10;99.90;;;;;;5000013;28;20040;-89
2022/01/09 08:12:49;;;;;;;18.98;5.88;;;1.10;99.90;;;;;;5000057;28;20034;-88
2022/01/09 08:15:15;;;;;;;18.17;6.38;;;1.10;99.90;;;;;;5016602;28;20575;-87
2022/01/09 08:17:46;;;;;;;14.30;6.85;;;1.10;99.90;;;;;;5016407;28;20026;-88
2022/01/09 08:20:16;;;;;;;20.83;8.57;;;1.20;99.90;;;;;;5000074;28;20045;-88
2022/01/09 08:22:42;;;;;;;16.70;6.72;;;1.20;99.90;;;;;;5000407;28;20030;-89
2022/01/09 08:25:16;;;;;;;24.27;6.03;;;1.30;99.90;;;;;;5000521;28;20076;-88
2022/01/09 08:27:43;;;;;;;24.70;10.07;;;1.30;99.90;;;;;;5000504;28;20141;-88
2022/01/09 08:30:11;;;;;;;17.85;6.93;;;1.30;99.90;;;;;;5016430;28;20034;-88
2022/01/09 08:32:37;;;;;;;25.42;8.23;;;1.40;99.90;;;;;;5000394;28;20038;-88
2022/01/09 08:35:04;;;;;;;16.55;6.47;;;1.40;99.90;;;;;;5016600;28;20034;-89
2022/01/09 08:37:30;;;;;;;21.52;7.15;;;1.40;99.90;;;;;;5016848;28;20420;-88
2022/01/09 08:39:56;;;;;;;17.85;7.25;;;1.40;99.90;;;;;;5016588;28;20065;-90
2022/01/09 08:42:22;;;;;;;18.08;5.93;;;1.40;99.90;;;;;;4999963;28;20048;-89
2022/01/09 08:44:48;;;;;;;12.82;5.68;;;1.40;99.90;;;;;;5000055;28;20539;-89
2022/01/09 08:47:14;;;;;;;20.23;6.22;;;1.40;99.90;;;;;;5017084;28;20116;-90
2022/01/09 08:49:40;;;;;;;17.73;5.78;;;1.40;99.90;;;;;;4999968;28;20036;-89
2022/01/09 08:52:06;;;;;;;18.23;5.60;;;1.50;99.90;;;;;;5016294;28;20032;-89
2022/01/09 08:54:32;;;;;;;14.13;5.50;;;1.50;99.90;;;;;;4999539;28;20040;-89
2022/01/09 08:56:58;;;;;;;14.63;4.55;;;1.50;99.90;;;;;;4999547;28;20429;-89
2022/01/09 08:59:26;;;;;;;14.80;5.07;;;1.50;99.90;;;;;;4983398;28;20080;-88
2022/01/09 09:01:52;;;;;;;14.48;5.32;;;1.50;99.90;;;;;;4999318;28;20470;-89
2022/01/09 09:04:18;;;;;;;13.73;5.25;;;1.50;99.90;;;;;;5015557;28;20041;-89
2022/01/09 09:06:44;;;;;;;20.73;5.70;;;1.50;99.90;;;;;;5015808;28;20087;-86
2022/01/09 09:09:11;;;;;;;16.13;5.25;;;1.50;99.90;;;;;;4983131;28;20038;-87
2022/01/09 09:11:37;;;;;;;14.68;5.25;;;1.50;99.90;;;;;;5000229;28;20033;-87
2022/01/09 09:14:03;;;;;;;17.95;4.78;;;1.50;99.90;;;;;;4999235;28;20034;-85
2022/01/09 09:16:31;;;;;;;16.75;5.43;;;1.50;99.90;;;;;;4998816;28;20026;-88
2022/01/09 09:18:56;;;;;;;17.27;5.40;;;1.60;99.90;;;;;;4998570;28;20397;-87
2022/01/09 09:21:22;;;;;;;22.90;5.60;;;1.60;99.90;;;;;;4998803;28;20033;-87
2022/01/09 09:23:48;;;;;;;23.05;5.90;;;1.60;99.90;;;;;;4998594;28;20104;-87
2022/01/09 09:26:16;;;;;;;17.75;4.43;;;1.60;99.90;;;;;;4998444;28;20132;-86
2022/01/09 09:28:42;;;;;;;19.90;5.05;;;1.60;99.90;;;;;;4998516;28;20030;-86
2022/01/09 09:31:09;;;;;;;18.35;5.68;;;1.60;99.90;;;;;;5014974;28;20033;-86
2022/01/09 09:33:34;;;;;;;18.85;4.55;;;1.60;99.90;;;;;;5015026;28;20044;-86
2022/01/09 09:36:02;;;;;;;12.02;4.38;;;1.60;99.90;;;;;;5014440;28;20030;-89
2022/01/09 09:38:29;;;;;;;21.90;5.75;;;1.50;99.90;;;;;;5014816;28;20034;-87
2022/01/09 09:40:55;;;;;;;16.52;4.40;;;1.50;99.90;;;;;;5014965;28;20496;-87
2022/01/09 09:43:21;;;;;;;20.20;5.07;;;1.60;99.90;;;;;;4998177;28;20389;-87
2022/01/09 09:45:56;;;;;;;18.48;6.20;;;1.60;99.90;;;;;;4997891;28;20034;-86
2022/01/09 09:48:22;;;;;;;19.23;4.72;;;1.60;99.90;;;;;;4998082;28;20551;-87
2022/01/09 09:50:48;;;;;;;19.30;4.70;;;1.60;99.90;;;;;;4998138;28;20477;-88
2022/01/09 09:53:14;;;;;;;25.58;6.80;;;1.70;99.90;;;;;;4981729;28;20026;-87
2022/01/09 09:55:44;;;;;;;19.27;4.07;;;1.60;99.90;;;;;;5014523;28;20033;-87
2022/01/09 09:58:11;;;;;;;17.45;3.97;;;1.70;99.90;;;;;;5014186;28;20049;-87
2022/01/09 10:00:36;;;;;;;19.75;4.40;;;1.60;99.90;;;;;;4998268;28;20045;-87
2022/01/09 10:03:03;;;;;;;24.73;4.25;;;1.60;99.90;;;;;;4997664;28;20034;-87
2022/01/09 10:05:34;;;;;;;23.63;4.90;;;1.60;99.90;;;;;;5014103;28;20076;-88
2022/01/09 10:08:06;;;;;;;13.07;3.90;;;1.60;99.90;;;;;;4998229;28;20485;-86
2022/01/09 10:10:33;;;;;;;16.55;4.45;;;1.70;99.90;;;;;;5014297;28;20092;-86
2022/01/09 10:13:11;;;;;;;19.58;5.80;;;1.70;99.90;;;;;;4997818;28;20045;-88
2022/01/09 10:15:47;;;;;;;18.42;5.82;;;1.70;99.90;;;;;;4997999;28;20449;-87
2022/01/09 10:18:13;;;;;;;25.58;3.97;;;1.70;99.90;;;;;;4953746;28;20059;-87
2022/01/09 10:20:39;;;;;;;15.98;4.18;;;1.70;99.90;;;;;;4956088;29;20475;-89
2022/01/09 10:23:06;;;;;;;18.00;5.57;;;1.70;99.90;;;;;;4940125;29;20671;-89
2022/01/09 10:25:33;;;;;;;20.98;4.10;;;1.70;99.90;;;;;;4957002;29;20423;-88
2022/01/09 10:28:12;;;;;;;18.52;4.25;;;1.60;99.90;;;;;;4939766;29;20501;-89
2022/01/09 10:30:41;;;;;;;11.75;3.78;;;1.60;99.90;;;;;;4955855;29;20487;-88
2022/01/09 10:33:13;;;;;;;32.60;4.43;;;1.60;99.90;;;;;;4955308;29;20035;-88
2022/01/09 10:35:44;;;;;;;12.10;3.05;;;1.60;99.90;;;;;;4954857;29;20043;-89
2022/01/09 10:38:11;;;;;;;18.88;4.20;;;1.60;99.90;;;;;;4938750;29;20050;-88
2022/01/09 10:40:38;;;;;;;15.32;3.92;;;1.70;99.90;;;;;;4939218;29;20101;-89
2022/01/09 10:43:12;;;;;;;15.90;3.60;;;1.70;99.90;;;;;;4955231;29;20085;-88
2022/01/09 10:45:40;;;;;;;16.63;3.55;;;1.70;99.90;;;;;;4957043;29;20120;-87
2022/01/09 10:48:10;;;;;;;22.88;3.55;;;1.80;99.90;;;;;;4955145;29;20028;-88
2022/01/09 10:50:42;;;;;;;12.52;3.70;;;1.70;99.90;;;;;;4959525;29;20033;-89
2022/01/09 10:53:27;;;;;;;12.10;3.67;;;1.70;99.90;;;;;;4945516;29;20059;-88
2022/01/09 10:56:10;;;;;;;25.23;4.20;;;1.70;99.90;;;;;;4960287;28;20435;-88
2022/01/09 10:58:57;;;;;;;19.95;4.35;;;1.70;99.90;;;;;;4961454;29;20035;-89
2022/01/09 11:01:28;;;;;;;19.23;3.83;;;1.80;99.90;;;;;;4938727;29;20483;-88
2022/01/09 11:04:14;;;;;;;12.18;3.72;;;1.90;99.90;;;;;;4954532;29;20576;-88
2022/01/09 11:07:05;;;;;;;28.55;4.35;;;2.00;99.90;;;;;;4955097;29;20042;-89
2022/01/09 11:09:32;;;;;;;14.95;4.25;;;2.30;99.90;;;;;;4954663;28;20450;-89
2022/01/09 11:11:58;;;;;;;19.00;5.10;;;2.40;99.90;;;;;;4954917;29;20399;-87
2022/01/09 11:14:26;;;;;;;19.13;3.75;;;2.40;99.90;;;;;;4954517;29;20035;-89
2022/01/09 11:16:54;;;;;;;15.13;3.35;;;2.50;99.90;;;;;;4955561;29;20391;-89
2022/01/09 11:19:36;;;;;;;11.75;3.20;;;2.50;99.90;;;;;;4954945;28;20037;-88
2022/01/09 11:22:05;;;;;;;13.07;3.08;;;2.40;99.90;;;;;;4954440;29;20497;-87
2022/01/09 11:24:53;;;;;;;16.17;3.75;;;2.30;99.90;;;;;;4954184;29;20043;-88
2022/01/09 11:27:37;;;;;;;21.92;5.18;;;2.20;99.90;;;;;;4955134;29;20082;-88
2022/01/09 11:30:11;;;;;;;22.92;6.80;;;2.20;99.90;;;;;;4938797;29;20125;-87
2022/01/09 11:32:52;;;;;;;18.08;6.72;;;2.20;99.90;;;;;;4954901;29;20050;-88
2022/01/09 11:35:38;;;;;;;16.60;4.97;;;2.20;99.90;;;;;;4954664;29;20043;-88
2022/01/09 11:38:47;;;;;;;18.13;5.85;;;2.20;99.90;;;;;;4955086;29;20282;-89
2022/01/09 11:41:18;;;;;;;21.17;5.25;;;2.40;99.90;;;;;;4938373;29;20090;-88
2022/01/09 11:43:57;;;;;;;24.48;5.95;;;2.40;99.90;;;;;;4955140;29;20038;-88
2022/01/09 11:46:25;;;;;;;21.23;4.90;;;2.50;99.90;;;;;;4954621;29;20057;-88
2022/01/09 11:48:51;;;;;;;18.73;4.22;;;2.60;99.90;;;;;;4954261;29;20094;-88
2022/01/09 11:51:17;;;;;;;16.02;3.50;;;2.60;99.90;;;;;;4954660;29;20039;-88
2022/01/09 11:54:05;;;;;;;17.50;3.60;;;2.60;99.90;;;;;;4953772;29;20031;-87
2022/01/09 11:56:54;;;;;;;18.08;6.28;;;2.60;99.90;;;;;;4954663;29;20067;-87
2022/01/09 12:00:12;;;;;;;15.43;7.70;;;2.60;99.90;;;;;;4938786;29;20495;-88
2022/01/09 12:02:38;;;;;;;19.60;5.55;;;2.70;99.90;;;;;;4938632;29;20394;-88
2022/01/09 12:05:09;;;;;;;19.85;4.95;;;2.70;99.90;;;;;;4954690;29;20031;-89
2022/01/09 12:07:34;;;;;;;16.85;5.38;;;2.60;99.90;;;;;;4954682;29;20171;-88
2022/01/09 12:10:22;;;;;;;21.23;6.10;;;2.60;99.90;;;;;;4954293;29;20110;-88
2022/01/09 12:12:48;;;;;;;11.18;3.90;;;2.40;99.90;;;;;;4925695;29;20518;-88
2022/01/09 12:15:31;;;;;;;11.82;4.20;;;2.50;99.90;;;;;;4938216;29;20043;-88
2022/01/09 12:18:00;;;;;;;13.52;4.18;;;2.60;99.90;;;;;;4954686;29;20035;-88
2022/01/09 12:20:28;;;;;;;16.23;4.22;;;2.80;99.90;;;;;;4954364;28;20035;-88
2022/01/09 12:23:20;;;;;;;21.75;4.82;;;3.00;99.90;;;;;;4957461;29;20031;-88
2022/01/09 12:25:50;;;;;;;15.90;4.47;;;3.10;99.90;;;;;;4957943;29;20086;-88
2022/01/09 12:28:23;;;;;;;39.22;13.02;;;3.10;99.90;;;;;;4958011;29;20438;-87
2022/01/09 12:31:21;;;;;;;24.08;6.55;;;3.40;99.90;;;;;;4941796;29;20039;-87
2022/01/09 12:33:49;;;;;;;19.98;6.55;;;3.50;99.90;;;;;;4957548;29;20058;-87
2022/01/09 12:36:23;;;;;;;12.85;3.63;;;3.60;99.90;;;;;;4957710;29;20035;-87
2022/01/09 12:38:53;;;;;;;19.85;7.07;;;3.80;99.90;;;;;;4958245;29;20023;-87
2022/01/09 12:41:22;;;;;;;23.00;5.13;;;3.90;99.90;;;;;;4925962;29;20034;-87
2022/01/09 12:43:49;;;;;;;15.05;3.95;;;4.10;99.90;;;;;;4957806;29;20030;-88
2022/01/09 12:46:19;;;;;;;29.70;8.85;;;4.30;99.90;;;;;;4957395;28;20047;-87
2022/01/09 12:48:58;;;;;;;22.23;5.85;;;4.40;99.90;;;;;;4957353;29;20039;-87
2022/01/09 12:51:25;;;;;;;12.07;3.47;;;4.40;99.90;;;;;;4958820;29;20031;-87
2022/01/09 12:53:53;;;;;;;11.50;3.15;;;4.60;99.90;;;;;;4957652;29;20057;-86
2022/01/09 12:56:24;;;;;;;14.65;3.17;;;4.70;99.90;;;;;;4957613;29;20082;-87
2022/01/09 12:58:52;;;;;;;10.93;3.00;;;4.90;99.90;;;;;;4957488;29;20045;-86
2022/01/09 13:01:31;;;;;;;10.25;3.33;;;4.70;99.90;;;;;;4957609;29;20027;-86